createdAt,value
2022-11-12T00:01:55.566Z,101741.41
2022-11-12T00:04:43.866Z,101737.72
2022-11-12T00:07:31.966Z,101741.94
2022-11-12T00:10:19.274Z,101746.13
2022-11-12T00:13:05.983Z,101743.34
2022-11-12T00:15:53.100Z,101736.22
2022-11-12T00:18:40.235Z,101738.72
2022-11-12T00:21:29.770Z,101738.59
2022-11-12T00:24:18.133Z,101735.91
2022-11-12T00:27:05.328Z,101744.50
2022-11-12T00:29:52.405Z,101740.13
2022-11-12T00:32:39.445Z,101734.78
2022-11-12T00:35:26.165Z,101749.47
2022-11-12T00:38:12.874Z,101744.94
2022-11-12T00:41:01.931Z,101751.75
2022-11-12T00:43:48.712Z,101753.34
2022-11-12T00:46:35.667Z,101747.13
2022-11-12T00:49:22.656Z,101750.53
2022-11-12T00:52:09.682Z,101751.31
2022-11-12T00:54:56.645Z,101752.22
2022-11-12T00:57:44.861Z,101755.75
2022-11-12T01:00:31.749Z,101760.16
2022-11-12T01:03:18.696Z,101759.25
2022-11-12T01:06:06.934Z,101751.31
2022-11-12T01:08:53.773Z,101756.53
2022-11-12T01:11:42.612Z,101760.97
2022-11-12T01:14:30.774Z,101757.34
2022-11-12T01:17:17.733Z,101765.94
2022-11-12T01:20:05.150Z,101763.25
2022-11-12T01:22:52.175Z,101769.16
2022-11-12T01:25:39.636Z,101762.13
2022-11-12T01:28:26.707Z,101773.38
2022-11-12T01:31:17.251Z,101769.88
2022-11-12T01:34:06.351Z,101759.25
2022-11-12T01:36:53.321Z,101757.53
2022-11-12T01:39:40.357Z,101749.53
2022-11-12T01:42:29.476Z,101751.22
2022-11-12T01:45:16.868Z,101745.91
2022-11-12T01:48:05.531Z,101743.19
2022-11-12T01:50:53.705Z,101741.41
2022-11-12T01:53:46.201Z,101749.09
2022-11-12T01:56:33.293Z,101745.50
2022-11-12T01:59:25.375Z,101741.09
2022-11-12T02:02:13.054Z,101745.28
2022-11-12T02:05:03.221Z,101735.69
2022-11-12T02:07:51.536Z,101742.50
2022-11-12T02:10:39.620Z,101730.16
2022-11-12T02:13:55.340Z,101734.25
2022-11-12T02:16:42.915Z,101734.06
2022-11-12T02:19:29.710Z,101731.13
2022-11-12T02:22:17.782Z,101729.13
2022-11-12T02:25:05.169Z,101734.13
2022-11-12T02:27:54.508Z,101733.00
2022-11-12T02:30:43.379Z,101739.81
2022-11-12T02:33:30.112Z,101729.97
2022-11-12T02:36:17.150Z,101732.38
2022-11-12T02:39:06.562Z,101740.09
2022-11-12T02:41:53.464Z,101743.41
2022-11-12T02:44:40.508Z,101747.59
2022-11-12T02:47:27.261Z,101741.38
2022-11-12T02:50:14.530Z,101739.56
2022-11-12T02:53:01.345Z,101735.06
2022-11-12T02:55:49.886Z,101739.25
2022-11-12T02:58:37.016Z,101747.84
2022-11-12T03:01:24.246Z,101745.94
2022-11-12T03:04:11.014Z,101750.09
2022-11-12T03:06:57.905Z,101745.59
2022-11-12T03:09:44.687Z,101744.63
2022-11-12T03:12:33.146Z,101738.28
2022-11-12T03:15:20.199Z,101738.19
2022-11-12T03:18:07.032Z,101745.88
2022-11-12T03:20:53.915Z,101739.78
2022-11-12T03:23:40.862Z,101742.25
2022-11-12T03:26:31.678Z,101742.25
2022-11-12T03:29:22.623Z,101736.16
2022-11-12T03:32:09.560Z,101733.44
2022-11-12T03:34:56.619Z,101726.44
2022-11-12T03:37:43.632Z,101728.94
2022-11-12T03:40:30.688Z,101721.03
2022-11-12T03:43:17.463Z,101721.03
2022-11-12T03:46:06.213Z,101729.75
2022-11-12T03:48:53.229Z,101728.03
2022-11-12T03:51:39.802Z,101716.72
2022-11-12T03:54:26.757Z,101722.84
2022-11-12T03:57:13.692Z,101721.94
2022-11-12T04:00:00.637Z,101713.31
2022-11-12T04:02:49.474Z,101715.03
2022-11-12T04:05:53.972Z,101714.22
2022-11-12T04:08:40.902Z,101714.22
2022-11-12T04:11:27.706Z,101706.53
2022-11-12T04:14:14.735Z,101710.84
2022-11-12T04:17:19.349Z,101707.44
2022-11-12T04:20:27.730Z,101702.22
2022-11-12T04:23:14.797Z,101702.22
2022-11-12T04:26:27.596Z,101696.00
2022-11-12T04:29:37.250Z,101693.41
2022-11-12T04:32:25.378Z,101696.81
2022-11-12T04:35:14.117Z,101703.63
2022-11-12T04:38:00.958Z,101701.00
2022-11-12T04:41:05.354Z,101694.78
2022-11-12T04:44:09.892Z,101686.00
2022-11-12T04:46:56.991Z,101683.28
2022-11-12T04:49:43.876Z,101679.69
2022-11-12T04:52:32.338Z,101682.19
2022-11-12T04:55:19.116Z,101680.38
2022-11-12T04:58:06.102Z,101678.56
2022-11-12T05:00:53.142Z,101679.34
2022-11-12T05:03:40.088Z,101673.16
2022-11-12T05:06:44.550Z,101673.16
2022-11-12T05:09:32.722Z,101673.94
2022-11-12T05:12:19.731Z,101676.56
2022-11-12T05:15:08.099Z,101661.84
2022-11-12T05:17:54.930Z,101664.44
2022-11-12T05:20:41.762Z,101664.34
2022-11-12T05:23:28.792Z,101659.16
2022-11-12T05:26:16.808Z,101646.16
2022-11-12T05:29:08.406Z,101650.44
2022-11-12T05:31:55.534Z,101649.53
2022-11-12T05:34:43.004Z,101648.75
2022-11-12T05:37:30.132Z,101646.16
2022-11-12T05:40:17.369Z,101646.94
2022-11-12T05:43:05.433Z,101640.97
2022-11-12T05:45:52.421Z,101635.63
2022-11-12T05:48:39.563Z,101632.22
2022-11-12T05:51:26.477Z,101632.22
2022-11-12T05:54:13.686Z,101635.75
2022-11-12T05:57:00.323Z,101629.53
2022-11-12T05:59:48.635Z,101632.22
2022-11-12T06:02:35.531Z,101626.94
2022-11-12T06:05:22.483Z,101633.94
2022-11-12T06:08:09.357Z,101632.16
2022-11-12T06:10:57.042Z,101638.13
2022-11-12T06:13:44.113Z,101643.31
2022-11-12T06:16:32.884Z,101644.25
2022-11-12T06:19:19.731Z,101650.34
2022-11-12T06:22:06.526Z,101661.53
2022-11-12T06:24:53.587Z,101656.31
2022-11-12T06:27:40.863Z,101666.72
2022-11-12T06:30:27.535Z,101663.22
2022-11-12T06:33:15.900Z,101671.84
2022-11-12T06:36:06.150Z,101672.59
2022-11-12T06:38:52.803Z,101674.31
2022-11-12T06:41:39.513Z,101674.09
2022-11-12T06:44:26.708Z,101680.81
2022-11-12T06:47:13.624Z,101689.16
2022-11-12T06:50:02.420Z,101694.84
2022-11-12T06:52:49.163Z,101687.59
2022-11-12T06:55:36.228Z,101692.44
2022-11-12T06:58:23.043Z,101698.09
2022-11-12T07:01:12.473Z,101698.56
2022-11-12T07:03:59.477Z,101702.63
2022-11-12T07:06:47.811Z,101704.88
2022-11-12T07:09:34.757Z,101708.97
2022-11-12T07:12:21.793Z,101727.72
2022-11-12T07:15:09.126Z,101710.22
2022-11-12T07:17:55.982Z,101713.50
2022-11-12T07:20:43.007Z,101706.50
2022-11-12T07:23:33.369Z,101708.97
2022-11-12T07:26:22.684Z,101715.75
2022-11-12T07:29:09.934Z,101718.25
2022-11-12T07:31:56.862Z,101709.56
2022-11-12T07:34:43.876Z,101713.84
2022-11-12T07:37:30.823Z,101718.25
2022-11-12T07:40:19.192Z,101709.56
2022-11-12T07:43:05.773Z,101709.66
2022-11-12T07:45:52.778Z,101712.38
2022-11-12T07:48:40.774Z,101709.88
2022-11-12T07:51:29.766Z,101716.00
2022-11-12T07:54:16.729Z,101714.38
2022-11-12T07:57:05.215Z,101705.91
2022-11-12T07:59:51.846Z,101713.06
2022-11-12T08:02:38.813Z,101712.47
2022-11-12T08:05:25.937Z,101705.81
2022-11-12T08:08:13.184Z,101717.44
2022-11-12T08:11:00.986Z,101720.47
2022-11-12T08:13:49.704Z,101729.63
2022-11-12T08:16:36.687Z,101722.28
2022-11-12T08:19:23.704Z,101722.06
2022-11-12T08:22:10.663Z,101724.38
2022-11-12T08:24:57.754Z,101716.34
2022-11-12T08:27:44.547Z,101711.00
2022-11-12T08:30:32.837Z,101711.63
2022-11-12T08:33:19.829Z,101719.50
2022-11-12T08:36:09.689Z,101722.06
2022-11-12T08:38:56.507Z,101721.28
2022-11-12T08:41:43.353Z,101721.34
2022-11-12T08:44:30.371Z,101715.25
2022-11-12T08:47:18.878Z,101723.97
2022-11-12T08:50:09.238Z,101717.06
2022-11-12T08:53:01.540Z,101721.50
2022-11-12T08:55:48.552Z,101726.09
2022-11-12T08:58:35.536Z,101722.59
2022-11-12T09:01:22.612Z,101716.53
2022-11-12T09:04:10.908Z,101713.91
2022-11-12T09:06:57.922Z,101706.94
2022-11-12T09:09:44.751Z,101709.50
2022-11-12T09:12:31.821Z,101705.28
2022-11-12T09:18:25.592Z,101712.34
2022-11-12T09:21:14.371Z,101711.47
2022-11-12T09:24:01.128Z,101710.56
2022-11-12T09:26:48.365Z,101712.19
2022-11-12T09:29:35.041Z,101708.56
2022-11-12T09:32:22.112Z,101709.28
2022-11-12T09:35:09.161Z,101724.84
2022-11-12T09:37:58.247Z,101724.81
2022-11-12T09:41:02.525Z,101711.69
2022-11-12T09:43:52.134Z,101715.97
2022-11-12T09:46:44.674Z,101707.97
2022-11-12T09:49:37.381Z,101722.66
2022-11-12T09:52:26.978Z,101723.31
2022-11-12T09:55:21.551Z,101723.09
2022-11-12T09:58:13.174Z,101719.31
2022-11-12T10:01:05.067Z,101718.16
2022-11-12T10:04:01.651Z,101724.03
2022-11-12T10:06:56.574Z,101707.97
2022-11-12T10:09:53.576Z,101713.69
2022-11-12T10:12:55.764Z,101708.09
2022-11-12T10:16:16.867Z,101701.50
2022-11-12T10:19:23.695Z,101697.63
2022-11-12T10:22:27.220Z,101694.53
2022-11-12T10:25:17.300Z,101692.28
2022-11-12T10:28:15.554Z,101694.47
2022-11-12T10:31:08.853Z,101685.25
2022-11-12T10:34:15.546Z,101690.94
2022-11-12T10:37:06.009Z,101692.22
2022-11-12T10:39:53.609Z,101690.84
2022-11-12T10:42:57.872Z,101691.28
2022-11-12T10:45:47.705Z,101680.38
2022-11-12T10:48:35.441Z,101678.19
2022-11-12T10:51:27.714Z,101670.75
2022-11-12T10:54:28.810Z,101675.56
2022-11-12T10:57:22.320Z,101670.69
2022-11-12T11:00:17.514Z,101670.16
2022-11-12T11:03:08.563Z,101667.03
2022-11-12T11:05:59.641Z,101668.19
2022-11-12T11:08:48.904Z,101663.25
2022-11-12T11:11:36.139Z,101652.19
2022-11-12T11:14:29.124Z,101650.72
2022-11-12T11:17:19.368Z,101652.78
2022-11-12T11:20:17.727Z,101649.56
2022-11-12T11:23:15.786Z,101655.03
2022-11-12T11:26:17.573Z,101656.16
2022-11-12T11:29:23.116Z,101645.03
2022-11-12T11:32:25.559Z,101646.19
2022-11-12T11:35:23.298Z,101640.22
2022-11-12T11:38:22.897Z,101635.19
2022-11-12T11:41:21.988Z,101628.38
2022-11-12T11:44:25.682Z,101626.97
2022-11-12T11:47:38.655Z,101625.41
2022-11-12T11:50:37.391Z,101624.81
2022-11-12T11:53:28.239Z,101630.41
2022-11-12T11:56:24.224Z,101625.41
2022-11-12T11:59:29.369Z,101638.84
2022-11-12T12:02:38.960Z,101630.34
2022-11-12T12:05:40.729Z,101624.41
2022-11-12T12:08:41.265Z,101626.31
2022-11-12T12:11:35.585Z,101624.75
2022-11-12T12:14:38.996Z,101617.00
2022-11-12T12:17:39.886Z,101623.28
2022-11-12T12:20:33.845Z,101620.84
2022-11-12T12:23:30.823Z,101615.75
2022-11-12T12:26:22.360Z,101615.88
2022-11-12T12:29:15.482Z,101610.78
2022-11-12T12:32:08.340Z,101608.38
2022-11-12T12:35:07.019Z,101605.94
2022-11-12T12:38:05.906Z,101599.97
2022-11-12T12:41:01.860Z,101592.25
2022-11-12T12:43:58.102Z,101587.09
2022-11-12T12:46:48.888Z,101582.91
2022-11-12T12:49:39.044Z,101593.66
2022-11-12T12:52:26.060Z,101588.47
2022-11-12T12:55:35.912Z,101589.53
2022-11-12T12:58:28.947Z,101587.09
2022-11-12T13:01:31.346Z,101585.50
2022-11-12T13:04:18.236Z,101585.69
2022-11-12T13:07:08.637Z,101589.38
2022-11-12T13:10:34.884Z,101592.16
2022-11-12T13:13:32.648Z,101590.56
2022-11-12T13:17:04.481Z,101595.13
2022-11-12T13:20:39.036Z,101594.47
2022-11-12T13:23:59.666Z,101586.78
2022-11-12T13:26:52.012Z,101592.25
2022-11-12T13:29:44.954Z,101590.63
2022-11-12T13:32:37.375Z,101583.75
2022-11-12T13:35:30.188Z,101587.44
2022-11-12T13:38:16.848Z,101580.53
2022-11-12T13:41:12.501Z,101575.50
2022-11-12T13:43:59.474Z,101579.16
2022-11-12T13:46:51.734Z,101573.97
2022-11-12T13:49:39.181Z,101572.28
2022-11-12T13:52:26.181Z,101577.63
2022-11-12T13:55:15.882Z,101568.88
2022-11-12T13:58:02.865Z,101574.25
2022-11-12T14:00:54.120Z,101570.75
2022-11-12T14:03:47.139Z,101569.94
2022-11-12T14:06:38.545Z,101567.34
2022-11-12T14:09:44.666Z,101562.16
2022-11-12T14:12:50.666Z,101555.25
2022-11-12T14:16:05.163Z,101553.63
2022-11-12T14:19:09.199Z,101554.56
2022-11-12T14:22:03.252Z,101559.00
2022-11-12T14:24:55.064Z,101557.28
2022-11-12T14:27:42.120Z,101556.34
2022-11-12T14:30:32.087Z,101552.75
2022-11-12T14:33:21.774Z,101549.06
2022-11-12T14:36:14.540Z,101549.81
2022-11-12T14:39:01.657Z,101545.22
2022-11-12T14:41:50.765Z,101535.38
2022-11-12T14:44:39.082Z,101543.09
2022-11-12T14:47:26.243Z,101539.34
2022-11-12T14:50:17.369Z,101536.44
2022-11-12T14:53:10.666Z,101537.97
2022-11-12T14:55:58.368Z,101534.09
2022-11-12T14:58:45.199Z,101530.34
2022-11-12T15:04:44.329Z,101527.09
2022-11-12T15:07:34.300Z,101532.06
2022-11-12T15:10:35.048Z,101537.94
2022-11-12T15:13:24.866Z,101530.56
2022-11-12T15:16:18.397Z,101519.75
2022-11-12T15:19:16.288Z,101521.09
2022-11-12T15:22:05.115Z,101528.75
2022-11-12T15:24:52.040Z,101523.09
2022-11-12T15:27:42.140Z,101518.38
2022-11-12T15:30:30.834Z,101518.03
2022-11-12T15:33:22.461Z,101525.59
2022-11-12T15:36:17.172Z,101522.69
2022-11-12T15:39:03.961Z,101517.94
2022-11-12T15:41:58.617Z,101518.41
2022-11-12T15:44:47.546Z,101515.47
2022-11-12T15:47:34.517Z,101514.16
2022-11-12T15:50:23.629Z,101519.09
2022-11-12T15:53:10.823Z,101511.72
2022-11-12T15:55:58.155Z,101506.97
2022-11-12T15:58:45.142Z,101511.94
2022-11-12T16:01:33.187Z,101507.13
2022-11-12T16:04:20.171Z,101506.75
2022-11-12T16:07:07.352Z,101506.34
2022-11-12T16:09:54.213Z,101501.59
2022-11-12T16:12:41.223Z,101504.78
2022-11-12T16:15:28.334Z,101498.31
2022-11-12T16:18:16.317Z,101496.13
2022-11-12T16:21:03.338Z,101507.16
2022-11-12T16:23:50.454Z,101503.34
2022-11-12T16:26:38.102Z,101490.66
2022-11-12T16:29:24.744Z,101501.72
2022-11-12T16:32:14.137Z,101493.44
2022-11-12T16:35:02.549Z,101493.03
2022-11-12T16:37:50.657Z,101494.44
2022-11-12T16:40:37.662Z,101484.50
2022-11-12T16:43:24.720Z,101492.03
2022-11-12T16:46:21.506Z,101489.94
2022-11-12T16:49:12.870Z,101478.16
2022-11-12T16:52:01.138Z,101489.19
2022-11-12T16:54:48.137Z,101482.72
2022-11-12T16:57:35.505Z,101480.63
2022-11-12T17:00:22.319Z,101482.09
2022-11-12T17:03:12.103Z,101481.75
2022-11-12T17:05:59.274Z,101480.66
2022-11-12T17:08:48.127Z,101486.56
2022-11-12T17:11:36.298Z,101484.47
2022-11-12T17:14:28.095Z,101488.69
2022-11-12T17:17:15.427Z,101472.63
2022-11-12T17:20:02.583Z,101478.53
2022-11-12T17:22:49.690Z,101480.91
2022-11-12T17:25:37.798Z,101481.53
2022-11-12T17:28:24.704Z,101481.22
2022-11-12T17:31:13.421Z,101485.34
2022-11-12T17:34:00.170Z,101476.31
2022-11-12T17:36:47.308Z,101472.59
2022-11-12T17:39:34.505Z,101471.38
2022-11-12T17:42:22.782Z,101472.03
2022-11-12T17:45:10.365Z,101459.47
2022-11-12T17:47:57.130Z,101460.16
2022-11-12T17:50:44.157Z,101467.91
2022-11-12T17:53:30.975Z,101455.56
2022-11-12T17:56:20.701Z,101456.41
2022-11-12T17:59:09.178Z,101455.50
2022-11-12T18:01:55.924Z,101453.72
2022-11-12T18:04:42.761Z,101450.19
2022-11-12T18:07:29.744Z,101456.31
2022-11-12T18:10:19.692Z,101445.78
2022-11-12T18:13:06.713Z,101449.22
2022-11-12T18:15:55.281Z,101451.00
2022-11-12T18:18:42.102Z,101444.00
2022-11-12T18:21:29.269Z,101444.81
2022-11-12T18:24:17.035Z,101444.00
2022-11-12T18:27:03.761Z,101453.63
2022-11-12T18:29:50.819Z,101455.50
2022-11-12T18:32:41.262Z,101449.53
2022-11-12T18:35:29.986Z,101447.06
2022-11-12T18:38:17.054Z,101449.81
2022-11-12T18:41:06.306Z,101451.78
2022-11-12T18:43:53.166Z,101442.34
2022-11-12T18:46:39.769Z,101448.56
2022-11-12T18:49:28.061Z,101433.75
2022-11-12T18:52:15.353Z,101440.75
2022-11-12T18:55:02.976Z,101431.13
2022-11-12T18:57:49.955Z,101436.28
2022-11-12T19:00:37.818Z,101434.56
2022-11-12T19:03:24.951Z,101429.34
2022-11-12T19:06:14.238Z,101432.91
2022-11-12T19:09:01.642Z,101429.47
2022-11-12T19:11:48.611Z,101420.97
2022-11-12T19:14:35.529Z,101424.50
2022-11-12T19:17:23.617Z,101428.13
2022-11-12T19:20:12.870Z,101426.47
2022-11-12T19:23:01.068Z,101421.22
2022-11-12T19:25:48.143Z,101421.16
2022-11-12T19:28:35.989Z,101422.06
2022-11-12T19:31:24.577Z,101423.00
2022-11-12T19:34:11.590Z,101422.22
2022-11-12T19:37:26.645Z,101419.59
2022-11-12T19:40:08.401Z,101420.63
2022-11-12T19:42:55.099Z,101422.44
2022-11-12T19:45:41.989Z,101413.66
2022-11-12T19:48:29.561Z,101416.28
2022-11-12T19:51:16.569Z,101415.31
2022-11-12T19:54:04.390Z,101418.75
2022-11-12T19:56:52.620Z,101412.53
2022-11-12T19:59:40.061Z,101414.22
2022-11-12T20:02:27.372Z,101408.00
2022-11-12T20:05:14.401Z,101406.13
2022-11-12T20:08:01.287Z,101402.53
2022-11-12T20:10:48.218Z,101399.84
2022-11-12T20:13:36.566Z,101406.72
2022-11-12T20:16:25.844Z,101402.31
2022-11-12T20:19:13.229Z,101399.63
2022-11-12T20:21:59.859Z,101393.44
2022-11-12T20:24:46.843Z,101395.97
2022-11-12T20:27:33.751Z,101391.47
2022-11-12T20:30:22.086Z,101392.22
2022-11-12T20:33:08.758Z,101387.75
2022-11-12T20:35:57.762Z,101385.00
2022-11-12T20:38:47.418Z,101386.63
2022-11-12T20:41:34.280Z,101387.38
2022-11-12T20:44:21.281Z,101386.41
2022-11-12T20:47:09.618Z,101388.03
2022-11-12T20:49:56.560Z,101382.75
2022-11-12T20:52:43.467Z,101390.44
2022-11-12T20:55:32.345Z,101391.19
2022-11-12T20:58:19.099Z,101389.31
2022-11-12T21:01:08.023Z,101391.75
2022-11-12T21:03:56.510Z,101385.50
2022-11-12T21:06:43.448Z,101386.25
2022-11-12T21:09:30.425Z,101374.69
2022-11-12T21:12:17.409Z,101381.56
2022-11-12T21:15:05.196Z,101380.53
2022-11-12T21:17:53.370Z,101380.44
2022-11-12T21:20:41.868Z,101368.88
2022-11-12T21:23:29.812Z,101375.72
2022-11-12T21:26:18.028Z,101368.56
2022-11-12T21:29:04.891Z,101366.69
2022-11-12T21:31:51.639Z,101361.25
2022-11-12T21:34:38.583Z,101361.91
2022-11-12T21:37:26.746Z,101369.59
2022-11-12T21:40:13.685Z,101366.75
2022-11-12T21:43:01.399Z,101361.28
2022-11-12T21:45:48.738Z,101354.91
2022-11-12T21:48:35.872Z,101353.00
2022-11-12T21:51:24.669Z,101358.03
2022-11-12T21:54:14.920Z,101354.28
2022-11-12T21:57:01.989Z,101354.00
2022-11-12T21:59:48.895Z,101350.25
2022-11-12T22:02:35.834Z,101345.66
2022-11-12T22:05:22.807Z,101348.03
2022-11-12T22:08:09.508Z,101345.22
2022-11-12T22:11:03.445Z,101345.88
2022-11-12T22:13:50.402Z,101348.31
2022-11-12T22:16:37.359Z,101346.34
2022-11-12T22:19:24.054Z,101346.09
2022-11-12T22:22:11.093Z,101337.13
2022-11-12T22:24:58.146Z,101343.03
2022-11-12T22:27:46.444Z,101340.97
2022-11-12T22:30:33.336Z,101344.16
2022-11-12T22:33:20.527Z,101343.03
2022-11-12T22:36:09.813Z,101343.59
2022-11-12T22:38:56.926Z,101338.03
2022-11-12T22:41:44.014Z,101336.97
2022-11-12T22:44:32.471Z,101335.88
2022-11-12T22:47:19.575Z,101335.72
2022-11-12T22:50:07.742Z,101334.59
2022-11-12T22:52:56.087Z,101336.06
2022-11-12T22:55:43.088Z,101333.28
2022-11-12T22:58:30.884Z,101327.91
2022-11-12T23:01:24.716Z,101324.94
2022-11-12T23:04:11.599Z,101323.78
2022-11-12T23:06:58.724Z,101323.63
2022-11-12T23:09:45.754Z,101319.84
2022-11-12T23:12:32.723Z,101318.75
2022-11-12T23:15:19.623Z,101314.97
2022-11-12T23:18:08.032Z,101318.31
2022-11-12T23:20:55.030Z,101315.53
2022-11-12T23:23:42.626Z,101311.78
2022-11-12T23:26:32.100Z,101303.78
2022-11-12T23:29:19.131Z,101303.63
2022-11-12T23:32:06.185Z,101308.66
2022-11-12T23:34:54.498Z,101305.88
2022-11-12T23:37:41.531Z,101308.31
2022-11-12T23:40:31.198Z,101312.53
2022-11-12T23:43:18.214Z,101306.34
2022-11-12T23:46:05.921Z,101310.56
2022-11-12T23:48:52.771Z,101315.59
2022-11-12T23:51:41.066Z,101306.78
2022-11-12T23:54:27.959Z,101313.66
2022-11-12T23:57:14.865Z,101306.44
